sensor_id;sensor_type;location;lat;lon;timestamp;pressure;altitude;pressure_sealevel;temperature;humidity
53908;BME280;40469;47.998;7.794;2023-01-30T00:02:24;99874.69;;;-2.30;100.00
53908;BME280;40469;47.998;7.794;2023-01-30T00:04:49;99873.09;;;-2.28;100.00
53908;BME280;40469;47.998;7.794;2023-01-30T00:07:15;99853.34;;;-2.31;100.00
53908;BME280;40469;47.998;7.794;2023-01-30T00:09:40;99836.00;;;-2.36;100.00
53908;BME280;40469;47.998;7.794;2023-01-30T00:12:05;99825.69;;;-2.38;100.00
53908;BME280;40469;47.998;7.794;2023-01-30T00:14:30;99824.25;;;-2.33;100.00
53908;BME280;40469;47.998;7.794;2023-01-30T00:16:55;99810.66;;;-2.32;100.00
53908;BME280;40469;47.998;7.794;2023-01-30T00:19:21;99813.38;;;-2.29;100.00
53908;BME280;40469;47.998;7.794;2023-01-30T00:21:46;99814.91;;;-2.32;100.00
53908;BME280;40469;47.998;7.794;2023-01-30T00:24:11;99806.84;;;-2.23;100.00
53908;BME280;40469;47.998;7.794;2023-01-30T00:26:36;99807.13;;;-2.02;100.00
53908;BME280;40469;47.998;7.794;2023-01-30T00:29:02;99806.19;;;-2.04;100.00
53908;BME280;40469;47.998;7.794;2023-01-30T00:31:27;99798.03;;;-1.97;100.00
53908;BME280;40469;47.998;7.794;2023-01-30T00:33:52;99799.66;;;-1.83;100.00
53908;BME280;40469;47.998;7.794;2023-01-30T00:36:17;99804.84;;;-1.81;100.00
53908;BME280;40469;47.998;7.794;2023-01-30T00:38:42;99803.25;;;-1.79;100.00
53908;BME280;40469;47.998;7.794;2023-01-30T00:41:08;99793.56;;;-1.68;100.00
53908;BME280;40469;47.998;7.794;2023-01-30T00:43:34;99784.34;;;-1.32;100.00
53908;BME280;40469;47.998;7.794;2023-01-30T00:46:25;99765.66;;;-1.29;100.00
53908;BME280;40469;47.998;7.794;2023-01-30T00:49:11;99761.81;;;-1.21;100.00
53908;BME280;40469;47.998;7.794;2023-01-30T00:51:37;99760.13;;;-1.21;100.00
53908;BME280;40469;47.998;7.794;2023-01-30T00:54:02;99764.50;;;-1.02;100.00
53908;BME280;40469;47.998;7.794;2023-01-30T00:56:27;99771.16;;;-0.87;100.00
53908;BME280;40469;47.998;7.794;2023-01-30T00:58:53;99770.28;;;-0.52;100.00
53908;BME280;40469;47.998;7.794;2023-01-30T01:01:18;99772.34;;;-0.63;100.00
53908;BME280;40469;47.998;7.794;2023-01-30T01:03:43;99764.94;;;-0.57;100.00
53908;BME280;40469;47.998;7.794;2023-01-30T01:06:08;99761.66;;;-0.54;100.00
53908;BME280;40469;47.998;7.794;2023-01-30T01:08:34;99757.53;;;-0.50;100.00
53908;BME280;40469;47.998;7.794;2023-01-30T01:10:59;99747.00;;;-0.39;100.00
53908;BME280;40469;47.998;7.794;2023-01-30T01:13:24;99755.94;;;-0.48;100.00
53908;BME280;40469;47.998;7.794;2023-01-30T01:15:49;99759.41;;;-0.28;100.00
53908;BME280;40469;47.998;7.794;2023-01-30T01:18:15;99759.63;;;-0.24;100.00
53908;BME280;40469;47.998;7.794;2023-01-30T01:20:40;99761.19;;;-0.27;100.00
53908;BME280;40469;47.998;7.794;2023-01-30T01:23:05;99757.94;;;-0.23;100.00
53908;BME280;40469;47.998;7.794;2023-01-30T01:25:30;99764.09;;;-0.20;100.00
53908;BME280;40469;47.998;7.794;2023-01-30T01:27:56;99783.31;;;-0.29;100.00
53908;BME280;40469;47.998;7.794;2023-01-30T01:30:21;99797.19;;;-0.26;100.00
53908;BME280;40469;47.998;7.794;2023-01-30T01:32:46;99817.41;;;-0.32;100.00
53908;BME280;40469;47.998;7.794;2023-01-30T01:35:11;99831.25;;;-0.28;100.00
53908;BME280;40469;47.998;7.794;2023-01-30T01:37:37;99833.09;;;-0.26;100.00
53908;BME280;40469;47.998;7.794;2023-01-30T01:40:02;99861.34;;;-0.26;100.00
53908;BME280;40469;47.998;7.794;2023-01-30T01:42:46;99869.03;;;-0.26;100.00
53908;BME280;40469;47.998;7.794;2023-01-30T01:45:21;99876.72;;;-0.26;100.00
53908;BME280;40469;47.998;7.794;2023-01-30T01:50:18;99912.06;;;-0.38;100.00
53908;BME280;40469;47.998;7.794;2023-01-30T01:52:45;99915.28;;;-0.42;100.00
53908;BME280;40469;47.998;7.794;2023-01-30T01:55:12;99914.00;;;-0.50;100.00
53908;BME280;40469;47.998;7.794;2023-01-30T01:57:39;99928.91;;;-0.43;100.00
53908;BME280;40469;47.998;7.794;2023-01-30T02:00:14;99933.38;;;-0.39;100.00
53908;BME280;40469;47.998;7.794;2023-01-30T02:02:45;99919.88;;;-0.53;100.00
53908;BME280;40469;47.998;7.794;2023-01-30T02:05:11;99916.50;;;-0.52;100.00
53908;BME280;40469;47.998;7.794;2023-01-30T02:10:07;99908.00;;;-0.51;100.00
53908;BME280;40469;47.998;7.794;2023-01-30T02:12:34;99907.78;;;-0.55;100.00
53908;BME280;40469;47.998;7.794;2023-01-30T02:15:00;99905.94;;;-0.58;100.00
53908;BME280;40469;47.998;7.794;2023-01-30T02:17:26;99893.56;;;-0.67;100.00
53908;BME280;40469;47.998;7.794;2023-01-30T02:20:06;99901.75;;;-0.74;100.00
53908;BME280;40469;47.998;7.794;2023-01-30T02:22:42;99903.47;;;-0.73;100.00
53908;BME280;40469;47.998;7.794;2023-01-30T02:32:40;99907.38;;;-0.81;100.00
53908;BME280;40469;47.998;7.794;2023-01-30T02:35:18;99907.75;;;-0.73;100.00
53908;BME280;40469;47.998;7.794;2023-01-30T02:42:51;99886.81;;;-0.65;100.00
53908;BME280;40469;47.998;7.794;2023-01-30T02:45:25;99881.69;;;-0.65;100.00
53908;BME280;40469;47.998;7.794;2023-01-30T02:47:57;99879.78;;;-0.69;100.00
53908;BME280;40469;47.998;7.794;2023-01-30T02:50:26;99880.31;;;-0.74;100.00
53908;BME280;40469;47.998;7.794;2023-01-30T02:52:53;99865.44;;;-0.82;100.00
53908;BME280;40469;47.998;7.794;2023-01-30T02:55:19;99850.75;;;-0.68;100.00
53908;BME280;40469;47.998;7.794;2023-01-30T02:57:45;99872.41;;;-0.79;100.00
53908;BME280;40469;47.998;7.794;2023-01-30T03:00:11;99871.34;;;-0.66;100.00
53908;BME280;40469;47.998;7.794;2023-01-30T03:02:41;99880.47;;;-0.71;100.00
53908;BME280;40469;47.998;7.794;2023-01-30T03:05:24;99906.88;;;-0.74;100.00
53908;BME280;40469;47.998;7.794;2023-01-30T03:18:17;99857.31;;;-0.73;100.00
53908;BME280;40469;47.998;7.794;2023-01-30T03:20:42;99864.00;;;-0.77;100.00
53908;BME280;40469;47.998;7.794;2023-01-30T03:23:08;99853.22;;;-0.69;100.00
53908;BME280;40469;47.998;7.794;2023-01-30T03:25:34;99834.31;;;-0.71;100.00
53908;BME280;40469;47.998;7.794;2023-01-30T03:28:01;99845.97;;;-0.78;100.00
53908;BME280;40469;47.998;7.794;2023-01-30T03:30:27;99851.09;;;-0.78;100.00
53908;BME280;40469;47.998;7.794;2023-01-30T03:32:53;99854.47;;;-0.79;100.00
53908;BME280;40469;47.998;7.794;2023-01-30T03:35:18;99834.59;;;-0.83;100.00
53908;BME280;40469;47.998;7.794;2023-01-30T03:37:44;99828.84;;;-0.79;100.00
53908;BME280;40469;47.998;7.794;2023-01-30T03:40:13;99814.75;;;-0.87;100.00
53908;BME280;40469;47.998;7.794;2023-01-30T03:42:39;99827.03;;;-0.98;100.00
53908;BME280;40469;47.998;7.794;2023-01-30T03:45:04;99827.41;;;-0.90;100.00
53908;BME280;40469;47.998;7.794;2023-01-30T03:47:29;99826.44;;;-0.92;100.00
53908;BME280;40469;47.998;7.794;2023-01-30T03:49:55;99808.09;;;-0.84;100.00
53908;BME280;40469;47.998;7.794;2023-01-30T03:52:20;99805.22;;;-0.90;100.00
53908;BME280;40469;47.998;7.794;2023-01-30T03:54:45;99806.31;;;-0.85;100.00
53908;BME280;40469;47.998;7.794;2023-01-30T03:57:10;99811.84;;;-0.77;100.00
53908;BME280;40469;47.998;7.794;2023-01-30T03:59:35;99785.31;;;-0.78;100.00
53908;BME280;40469;47.998;7.794;2023-01-30T04:02:01;99781.66;;;-0.83;100.00
53908;BME280;40469;47.998;7.794;2023-01-30T04:04:26;99768.59;;;-0.87;100.00
53908;BME280;40469;47.998;7.794;2023-01-30T04:06:51;99766.47;;;-0.78;100.00
53908;BME280;40469;47.998;7.794;2023-01-30T04:09:16;99764.81;;;-0.78;100.00
53908;BME280;40469;47.998;7.794;2023-01-30T04:11:41;99783.47;;;-0.80;100.00
53908;BME280;40469;47.998;7.794;2023-01-30T04:14:07;99775.94;;;-0.77;100.00
53908;BME280;40469;47.998;7.794;2023-01-30T04:16:32;99781.44;;;-0.69;100.00
53908;BME280;40469;47.998;7.794;2023-01-30T04:18:57;99783.84;;;-0.72;100.00
53908;BME280;40469;47.998;7.794;2023-01-30T04:21:22;99788.91;;;-0.74;100.00
53908;BME280;40469;47.998;7.794;2023-01-30T04:23:48;99790.22;;;-0.82;100.00
53908;BME280;40469;47.998;7.794;2023-01-30T04:26:13;99787.88;;;-0.78;100.00
53908;BME280;40469;47.998;7.794;2023-01-30T04:28:39;99808.31;;;-0.79;100.00
53908;BME280;40469;47.998;7.794;2023-01-30T04:31:04;99803.31;;;-0.76;100.00
53908;BME280;40469;47.998;7.794;2023-01-30T04:33:30;99808.41;;;-0.78;100.00
53908;BME280;40469;47.998;7.794;2023-01-30T04:35:57;99813.44;;;-0.79;100.00
53908;BME280;40469;47.998;7.794;2023-01-30T04:38:23;99818.41;;;-0.82;100.00
53908;BME280;40469;47.998;7.794;2023-01-30T04:40:52;99815.28;;;-0.77;100.00
53908;BME280;40469;47.998;7.794;2023-01-30T04:43:20;99827.81;;;-0.83;100.00
53908;BME280;40469;47.998;7.794;2023-01-30T04:45:46;99841.78;;;-0.76;100.00
53908;BME280;40469;47.998;7.794;2023-01-30T04:48:12;99848.59;;;-0.77;100.00
53908;BME280;40469;47.998;7.794;2023-01-30T04:50:38;99834.91;;;-0.77;100.00
53908;BME280;40469;47.998;7.794;2023-01-30T04:53:03;99830.66;;;-0.77;100.00
53908;BME280;40469;47.998;7.794;2023-01-30T04:55:28;99837.41;;;-0.79;100.00
53908;BME280;40469;47.998;7.794;2023-01-30T04:57:54;99840.84;;;-0.78;100.00
53908;BME280;40469;47.998;7.794;2023-01-30T05:00:19;99820.31;;;-0.78;100.00
53908;BME280;40469;47.998;7.794;2023-01-30T05:02:44;99822.00;;;-0.79;100.00
53908;BME280;40469;47.998;7.794;2023-01-30T05:05:09;99840.38;;;-0.87;100.00
53908;BME280;40469;47.998;7.794;2023-01-30T05:07:35;99838.28;;;-0.78;100.00
53908;BME280;40469;47.998;7.794;2023-01-30T05:10:00;99828.16;;;-0.75;100.00
53908;BME280;40469;47.998;7.794;2023-01-30T05:12:26;99812.19;;;-0.69;100.00
53908;BME280;40469;47.998;7.794;2023-01-30T05:14:52;99805.34;;;-0.70;100.00
53908;BME280;40469;47.998;7.794;2023-01-30T05:17:17;99807.16;;;-0.68;100.00
53908;BME280;40469;47.998;7.794;2023-01-30T05:19:42;99848.84;;;-0.72;100.00
53908;BME280;40469;47.998;7.794;2023-01-30T05:22:07;99852.81;;;-0.61;100.00
53908;BME280;40469;47.998;7.794;2023-01-30T05:24:32;99857.06;;;-0.61;100.00
53908;BME280;40469;47.998;7.794;2023-01-30T05:26:58;99855.78;;;-0.69;100.00
53908;BME280;40469;47.998;7.794;2023-01-30T05:29:23;99848.34;;;-0.65;100.00
53908;BME280;40469;47.998;7.794;2023-01-30T05:31:48;99828.09;;;-0.59;100.00
53908;BME280;40469;47.998;7.794;2023-01-30T05:34:13;99835.69;;;-0.78;100.00
53908;BME280;40469;47.998;7.794;2023-01-30T05:36:38;99841.34;;;-0.67;100.00
53908;BME280;40469;47.998;7.794;2023-01-30T05:39:04;99845.25;;;-0.75;100.00
53908;BME280;40469;47.998;7.794;2023-01-30T05:41:29;99847.34;;;-0.85;100.00
53908;BME280;40469;47.998;7.794;2023-01-30T05:43:54;99865.69;;;-0.77;100.00
53908;BME280;40469;47.998;7.794;2023-01-30T05:46:19;99850.38;;;-0.75;100.00
53908;BME280;40469;47.998;7.794;2023-01-30T05:48:45;99843.41;;;-0.78;100.00
53908;BME280;40469;47.998;7.794;2023-01-30T05:51:14;99823.41;;;-0.67;100.00
53908;BME280;40469;47.998;7.794;2023-01-30T05:53:40;99815.13;;;-0.80;100.00
53908;BME280;40469;47.998;7.794;2023-01-30T05:56:05;99820.25;;;-0.80;100.00
53908;BME280;40469;47.998;7.794;2023-01-30T05:58:31;99812.00;;;-0.74;100.00
53908;BME280;40469;47.998;7.794;2023-01-30T06:01:04;99801.88;;;-0.71;100.00
53908;BME280;40469;47.998;7.794;2023-01-30T06:03:29;99787.00;;;-0.60;100.00
53908;BME280;40469;47.998;7.794;2023-01-30T06:05:54;99784.44;;;-0.60;100.00
53908;BME280;40469;47.998;7.794;2023-01-30T06:08:20;99808.34;;;-0.61;100.00
53908;BME280;40469;47.998;7.794;2023-01-30T06:10:45;99819.38;;;-0.62;100.00
53908;BME280;40469;47.998;7.794;2023-01-30T06:13:10;99821.94;;;-0.62;100.00
53908;BME280;40469;47.998;7.794;2023-01-30T06:15:36;99824.97;;;-0.53;100.00
53908;BME280;40469;47.998;7.794;2023-01-30T06:18:01;99831.78;;;-0.53;100.00
53908;BME280;40469;47.998;7.794;2023-01-30T06:20:26;99824.06;;;-0.53;100.00
53908;BME280;40469;47.998;7.794;2023-01-30T06:22:51;99819.91;;;-0.51;100.00
53908;BME280;40469;47.998;7.794;2023-01-30T06:25:16;99816.03;;;-0.43;100.00
53908;BME280;40469;47.998;7.794;2023-01-30T06:27:42;99810.81;;;-0.45;100.00
53908;BME280;40469;47.998;7.794;2023-01-30T06:30:09;99820.88;;;-0.49;100.00
53908;BME280;40469;47.998;7.794;2023-01-30T06:32:34;99821.47;;;-0.37;100.00
53908;BME280;40469;47.998;7.794;2023-01-30T06:34:59;99825.50;;;-0.42;100.00
53908;BME280;40469;47.998;7.794;2023-01-30T06:37:25;99820.63;;;-0.36;100.00
53908;BME280;40469;47.998;7.794;2023-01-30T06:39:50;99820.13;;;-0.47;100.00
53908;BME280;40469;47.998;7.794;2023-01-30T06:42:15;99814.47;;;-0.40;100.00
53908;BME280;40469;47.998;7.794;2023-01-30T06:44:40;99819.78;;;-0.36;100.00
53908;BME280;40469;47.998;7.794;2023-01-30T06:47:06;99812.78;;;-0.39;100.00
53908;BME280;40469;47.998;7.794;2023-01-30T06:49:31;99823.00;;;-0.41;100.00
53908;BME280;40469;47.998;7.794;2023-01-30T06:51:56;99818.66;;;-0.42;100.00
53908;BME280;40469;47.998;7.794;2023-01-30T06:54:21;99819.97;;;-0.50;100.00
53908;BME280;40469;47.998;7.794;2023-01-30T06:56:46;99809.44;;;-0.38;100.00
53908;BME280;40469;47.998;7.794;2023-01-30T06:59:12;99797.28;;;-0.42;100.00
53908;BME280;40469;47.998;7.794;2023-01-30T07:01:37;99806.28;;;-0.50;100.00
53908;BME280;40469;47.998;7.794;2023-01-30T07:04:03;99793.72;;;-0.44;100.00
53908;BME280;40469;47.998;7.794;2023-01-30T07:06:29;99793.44;;;-0.50;100.00
53908;BME280;40469;47.998;7.794;2023-01-30T07:08:54;99796.88;;;-0.50;100.00
53908;BME280;40469;47.998;7.794;2023-01-30T07:11:22;99798.28;;;-0.57;100.00
53908;BME280;40469;47.998;7.794;2023-01-30T07:13:47;99804.66;;;-0.48;100.00
53908;BME280;40469;47.998;7.794;2023-01-30T07:16:12;99785.91;;;-0.47;100.00
53908;BME280;40469;47.998;7.794;2023-01-30T07:18:37;99775.41;;;-0.52;100.00
53908;BME280;40469;47.998;7.794;2023-01-30T07:21:03;99772.69;;;-0.55;100.00
53908;BME280;40469;47.998;7.794;2023-01-30T07:23:28;99774.56;;;-0.52;100.00
53908;BME280;40469;47.998;7.794;2023-01-30T07:25:53;99766.94;;;-0.51;100.00
53908;BME280;40469;47.998;7.794;2023-01-30T07:28:19;99783.88;;;-0.54;100.00
53908;BME280;40469;47.998;7.794;2023-01-30T07:30:44;99778.00;;;-0.52;100.00
53908;BME280;40469;47.998;7.794;2023-01-30T07:33:10;99780.84;;;-0.46;100.00
53908;BME280;40469;47.998;7.794;2023-01-30T07:35:35;99801.81;;;-0.54;100.00
53908;BME280;40469;47.998;7.794;2023-01-30T07:38:01;99792.50;;;-0.52;100.00
53908;BME280;40469;47.998;7.794;2023-01-30T07:40:26;99795.88;;;-0.53;100.00
53908;BME280;40469;47.998;7.794;2023-01-30T07:42:55;99790.81;;;-0.52;100.00
53908;BME280;40469;47.998;7.794;2023-01-30T07:45:21;99812.19;;;-0.51;100.00
53908;BME280;40469;47.998;7.794;2023-01-30T07:47:46;99809.59;;;-0.53;100.00
53908;BME280;40469;47.998;7.794;2023-01-30T07:50:11;99802.69;;;-0.54;100.00
53908;BME280;40469;47.998;7.794;2023-01-30T07:52:37;99811.69;;;-0.44;100.00
53908;BME280;40469;47.998;7.794;2023-01-30T07:55:02;99813.31;;;-0.46;100.00
53908;BME280;40469;47.998;7.794;2023-01-30T07:57:28;99827.75;;;-0.30;100.00
53908;BME280;40469;47.998;7.794;2023-01-30T07:59:53;99833.09;;;-0.26;100.00
53908;BME280;40469;47.998;7.794;2023-01-30T08:02:18;99846.59;;;-0.12;100.00
53908;BME280;40469;47.998;7.794;2023-01-30T08:04:44;99859.44;;;-0.12;100.00
53908;BME280;40469;47.998;7.794;2023-01-30T08:07:09;99842.56;;;-0.07;100.00
53908;BME280;40469;47.998;7.794;2023-01-30T08:09:34;99836.53;;;-0.07;100.00
53908;BME280;40469;47.998;7.794;2023-01-30T08:11:59;99836.22;;;0.05;100.00
53908;BME280;40469;47.998;7.794;2023-01-30T08:14:25;99825.09;;;0.04;100.00
53908;BME280;40469;47.998;7.794;2023-01-30T08:16:50;99839.38;;;-0.01;100.00
53908;BME280;40469;47.998;7.794;2023-01-30T08:19:16;99829.03;;;-0.03;100.00
53908;BME280;40469;47.998;7.794;2023-01-30T08:21:41;99827.34;;;-0.02;100.00
53908;BME280;40469;47.998;7.794;2023-01-30T08:24:06;99814.59;;;-0.01;100.00
53908;BME280;40469;47.998;7.794;2023-01-30T08:26:32;99809.53;;;0.01;100.00
53908;BME280;40469;47.998;7.794;2023-01-30T08:28:57;99807.63;;;-0.03;100.00
53908;BME280;40469;47.998;7.794;2023-01-30T08:31:22;99842.75;;;-0.02;100.00
53908;BME280;40469;47.998;7.794;2023-01-30T08:33:48;99806.16;;;0.02;100.00
53908;BME280;40469;47.998;7.794;2023-01-30T08:36:13;99820.22;;;0.10;100.00
53908;BME280;40469;47.998;7.794;2023-01-30T08:38:38;99846.78;;;0.11;100.00
53908;BME280;40469;47.998;7.794;2023-01-30T08:41:04;99830.22;;;0.04;100.00
53908;BME280;40469;47.998;7.794;2023-01-30T08:43:30;99849.28;;;0.09;100.00
53908;BME280;40469;47.998;7.794;2023-01-30T08:45:55;99832.09;;;0.08;100.00
53908;BME280;40469;47.998;7.794;2023-01-30T08:48:21;99825.22;;;0.07;100.00
53908;BME280;40469;47.998;7.794;2023-01-30T08:50:46;99857.19;;;0.14;100.00
53908;BME280;40469;47.998;7.794;2023-01-30T08:53:11;99866.88;;;0.20;100.00
53908;BME280;40469;47.998;7.794;2023-01-30T08:55:37;99868.19;;;0.11;100.00
53908;BME280;40469;47.998;7.794;2023-01-30T08:58:02;99854.84;;;0.18;100.00
53908;BME280;40469;47.998;7.794;2023-01-30T09:00:27;99860.84;;;0.19;100.00
53908;BME280;40469;47.998;7.794;2023-01-30T09:02:56;99868.09;;;0.28;100.00
53908;BME280;40469;47.998;7.794;2023-01-30T09:05:21;99867.59;;;0.17;100.00
53908;BME280;40469;47.998;7.794;2023-01-30T09:07:47;99872.06;;;0.21;100.00
53908;BME280;40469;47.998;7.794;2023-01-30T09:10:12;99859.44;;;0.26;100.00
53908;BME280;40469;47.998;7.794;2023-01-30T09:12:37;99849.91;;;0.23;100.00
53908;BME280;40469;47.998;7.794;2023-01-30T09:15:02;99843.88;;;0.23;100.00
53908;BME280;40469;47.998;7.794;2023-01-30T09:17:28;99866.19;;;0.24;100.00
53908;BME280;40469;47.998;7.794;2023-01-30T09:19:53;99863.84;;;0.28;100.00
53908;BME280;40469;47.998;7.794;2023-01-30T09:22:18;99870.31;;;0.20;100.00
53908;BME280;40469;47.998;7.794;2023-01-30T09:24:43;99849.78;;;0.20;100.00
53908;BME280;40469;47.998;7.794;2023-01-30T09:27:09;99856.16;;;0.28;100.00
53908;BME280;40469;47.998;7.794;2023-01-30T09:29:34;99842.22;;;0.23;100.00
53908;BME280;40469;47.998;7.794;2023-01-30T09:31:59;99842.47;;;0.29;100.00
53908;BME280;40469;47.998;7.794;2023-01-30T09:34:25;99852.97;;;0.34;100.00
53908;BME280;40469;47.998;7.794;2023-01-30T09:36:55;99841.78;;;0.33;100.00
53908;BME280;40469;47.998;7.794;2023-01-30T09:39:21;99852.16;;;0.35;100.00
53908;BME280;40469;47.998;7.794;2023-01-30T09:41:52;99856.56;;;0.37;100.00
53908;BME280;40469;47.998;7.794;2023-01-30T09:44:31;99845.13;;;0.31;100.00
53908;BME280;40469;47.998;7.794;2023-01-30T09:49:36;99848.63;;;0.33;100.00
53908;BME280;40469;47.998;7.794;2023-01-30T09:54:40;99852.59;;;0.44;100.00
53908;BME280;40469;47.998;7.794;2023-01-30T09:59:35;99816.63;;;0.44;100.00
53908;BME280;40469;47.998;7.794;2023-01-30T10:04:50;99842.97;;;0.40;100.00
53908;BME280;40469;47.998;7.794;2023-01-30T10:15:15;99853.16;;;0.58;100.00
53908;BME280;40469;47.998;7.794;2023-01-30T10:17:50;99856.22;;;0.49;100.00
53908;BME280;40469;47.998;7.794;2023-01-30T10:25:39;99838.13;;;0.66;100.00
53908;BME280;40469;47.998;7.794;2023-01-30T10:28:11;99808.28;;;0.69;100.00
53908;BME280;40469;47.998;7.794;2023-01-30T10:30:39;99798.94;;;0.71;100.00
53908;BME280;40469;47.998;7.794;2023-01-30T10:33:05;99807.53;;;0.72;100.00
53908;BME280;40469;47.998;7.794;2023-01-30T10:35:36;99807.59;;;0.73;100.00
53908;BME280;40469;47.998;7.794;2023-01-30T10:38:19;99806.41;;;0.86;100.00
53908;BME280;40469;47.998;7.794;2023-01-30T10:41:00;99797.00;;;1.06;100.00
53908;BME280;40469;47.998;7.794;2023-01-30T10:43:44;99794.22;;;1.23;100.00
53908;BME280;40469;47.998;7.794;2023-01-30T10:46:22;99795.31;;;1.94;100.00
53908;BME280;40469;47.998;7.794;2023-01-30T10:48:51;99786.00;;;2.69;100.00
53908;BME280;40469;47.998;7.794;2023-01-30T10:51:37;99763.03;;;2.51;100.00
53908;BME280;40469;47.998;7.794;2023-01-30T10:56:39;99775.50;;;2.40;100.00
53908;BME280;40469;47.998;7.794;2023-01-30T11:02:01;99757.56;;;1.95;100.00
53908;BME280;40469;47.998;7.794;2023-01-30T11:04:29;99742.91;;;1.69;100.00
53908;BME280;40469;47.998;7.794;2023-01-30T11:06:55;99735.44;;;1.77;100.00
53908;BME280;40469;47.998;7.794;2023-01-30T11:09:21;99737.56;;;2.12;100.00
53908;BME280;40469;47.998;7.794;2023-01-30T11:11:48;99746.41;;;2.18;100.00
53908;BME280;40469;47.998;7.794;2023-01-30T11:14:14;99747.88;;;2.36;100.00
53908;BME280;40469;47.998;7.794;2023-01-30T11:16:46;99757.75;;;2.23;100.00
53908;BME280;40469;47.998;7.794;2023-01-30T11:19:12;99750.03;;;2.23;100.00
53908;BME280;40469;47.998;7.794;2023-01-30T11:21:38;99744.53;;;2.14;100.00
53908;BME280;40469;47.998;7.794;2023-01-30T11:24:12;99725.28;;;2.04;100.00
53908;BME280;40469;47.998;7.794;2023-01-30T11:26:37;99719.59;;;2.13;100.00
53908;BME280;40469;47.998;7.794;2023-01-30T11:29:37;99708.09;;;2.03;100.00
53908;BME280;40469;47.998;7.794;2023-01-30T11:31:54;99707.69;;;2.17;100.00
53908;BME280;40469;47.998;7.794;2023-01-30T11:34:22;99701.06;;;1.75;100.00
53908;BME280;40469;47.998;7.794;2023-01-30T11:36:48;99689.38;;;1.85;100.00
53908;BME280;40469;47.998;7.794;2023-01-30T11:41:55;99684.50;;;1.68;100.00
53908;BME280;40469;47.998;7.794;2023-01-30T11:44:26;99680.00;;;1.87;100.00
53908;BME280;40469;47.998;7.794;2023-01-30T11:46:52;99680.47;;;1.99;100.00
53908;BME280;40469;47.998;7.794;2023-01-30T11:49:17;99677.94;;;2.01;100.00
53908;BME280;40469;47.998;7.794;2023-01-30T11:51:45;99678.97;;;2.30;100.00
53908;BME280;40469;47.998;7.794;2023-01-30T11:54:12;99683.88;;;2.22;100.00
53908;BME280;40469;47.998;7.794;2023-01-30T11:59:06;99666.59;;;2.20;100.00
53908;BME280;40469;47.998;7.794;2023-01-30T12:01:32;99646.78;;;2.17;100.00
53908;BME280;40469;47.998;7.794;2023-01-30T12:03:58;99661.69;;;2.26;100.00
53908;BME280;40469;47.998;7.794;2023-01-30T12:08:54;99655.19;;;2.13;100.00
53908;BME280;40469;47.998;7.794;2023-01-30T12:11:24;99659.19;;;2.29;100.00
53908;BME280;40469;47.998;7.794;2023-01-30T12:13:49;99672.47;;;2.41;100.00
53908;BME280;40469;47.998;7.794;2023-01-30T12:16:19;99694.94;;;2.44;100.00
53908;BME280;40469;47.998;7.794;2023-01-30T12:18:54;99661.97;;;2.35;100.00
53908;BME280;40469;47.998;7.794;2023-01-30T12:21:45;99688.78;;;2.40;100.00
53908;BME280;40469;47.998;7.794;2023-01-30T12:26:43;99671.56;;;2.39;100.00
53908;BME280;40469;47.998;7.794;2023-01-30T12:32:04;99676.72;;;2.39;100.00
53908;BME280;40469;47.998;7.794;2023-01-30T12:34:30;99672.13;;;2.31;100.00
53908;BME280;40469;47.998;7.794;2023-01-30T12:55:06;99642.66;;;2.75;100.00
53908;BME280;40469;47.998;7.794;2023-01-30T12:57:45;99651.00;;;2.67;100.00
53908;BME280;40469;47.998;7.794;2023-01-30T13:06:36;99641.09;;;2.79;100.00
53908;BME280;40469;47.998;7.794;2023-01-30T13:08:32;99621.13;;;2.73;100.00
53908;BME280;40469;47.998;7.794;2023-01-30T13:13:47;99632.50;;;2.53;100.00
53908;BME280;40469;47.998;7.794;2023-01-30T13:21:13;99638.53;;;2.53;100.00
53908;BME280;40469;47.998;7.794;2023-01-30T13:26:26;99622.25;;;2.54;100.00
53908;BME280;40469;47.998;7.794;2023-01-30T13:28:56;99623.78;;;2.49;100.00
53908;BME280;40469;47.998;7.794;2023-01-30T13:31:23;99617.97;;;2.55;100.00
53908;BME280;40469;47.998;7.794;2023-01-30T13:33:51;99618.13;;;2.61;100.00
53908;BME280;40469;47.998;7.794;2023-01-30T13:36:20;99620.72;;;2.61;100.00
53908;BME280;40469;47.998;7.794;2023-01-30T13:38:56;99609.53;;;2.60;100.00
53908;BME280;40469;47.998;7.794;2023-01-30T13:41:23;99623.13;;;2.55;100.00
53908;BME280;40469;47.998;7.794;2023-01-30T13:43:50;99618.88;;;2.57;100.00
53908;BME280;40469;47.998;7.794;2023-01-30T13:46:17;99610.22;;;2.55;100.00
53908;BME280;40469;47.998;7.794;2023-01-30T13:51:44;99635.72;;;2.47;100.00
53908;BME280;40469;47.998;7.794;2023-01-30T13:56:44;99633.88;;;2.43;100.00
53908;BME280;40469;47.998;7.794;2023-01-30T13:59:29;99632.16;;;2.43;100.00
53908;BME280;40469;47.998;7.794;2023-01-30T14:09:41;99655.59;;;2.50;100.00
53908;BME280;40469;47.998;7.794;2023-01-30T14:12:16;99644.34;;;2.47;100.00
53908;BME280;40469;47.998;7.794;2023-01-30T14:14:42;99671.81;;;2.47;100.00
53908;BME280;40469;47.998;7.794;2023-01-30T14:17:20;99647.63;;;2.43;100.00
53908;BME280;40469;47.998;7.794;2023-01-30T14:22:21;99655.22;;;2.39;100.00
53908;BME280;40469;47.998;7.794;2023-01-30T14:27:36;99671.91;;;2.50;100.00
53908;BME280;40469;47.998;7.794;2023-01-30T14:30:24;99665.84;;;2.48;100.00
53908;BME280;40469;47.998;7.794;2023-01-30T14:32:51;99678.78;;;2.50;100.00
53908;BME280;40469;47.998;7.794;2023-01-30T14:35:19;99667.84;;;2.57;100.00
53908;BME280;40469;47.998;7.794;2023-01-30T14:37:46;99667.66;;;2.51;100.00
53908;BME280;40469;47.998;7.794;2023-01-30T14:53:35;99713.22;;;2.52;100.00
53908;BME280;40469;47.998;7.794;2023-01-30T14:56:01;99720.16;;;2.53;100.00
53908;BME280;40469;47.998;7.794;2023-01-30T14:58:27;99702.84;;;2.50;100.00
53908;BME280;40469;47.998;7.794;2023-01-30T15:00:58;99706.91;;;2.43;100.00
53908;BME280;40469;47.998;7.794;2023-01-30T15:03:24;99715.38;;;2.39;100.00
53908;BME280;40469;47.998;7.794;2023-01-30T15:05:49;99718.00;;;2.41;100.00
53908;BME280;40469;47.998;7.794;2023-01-30T15:08:17;99726.66;;;2.43;100.00
53908;BME280;40469;47.998;7.794;2023-01-30T15:16:03;99752.44;;;2.43;100.00